sensor_id;sensor_type;location;lat;lon;timestamp;P1;durP1;ratioP1;P2;durP2;ratioP2
61435;SDS011;47304;47.456;19.160;2023-04-03T00:01:50;8.30;;;3.90;;
61435;SDS011;47304;47.456;19.160;2023-04-03T00:04:17;8.90;;;4.50;;
61435;SDS011;47304;47.456;19.160;2023-04-03T00:06:44;7.50;;;3.50;;
61435;SDS011;47304;47.456;19.160;2023-04-03T00:09:10;8.10;;;4.10;;
61435;SDS011;47304;47.456;19.160;2023-04-03T00:11:37;8.70;;;3.90;;
61435;SDS011;47304;47.456;19.160;2023-04-03T00:14:03;8.80;;;4.30;;
61435;SDS011;47304;47.456;19.160;2023-04-03T00:16:30;8.70;;;4.50;;
61435;SDS011;47304;47.456;19.160;2023-04-03T00:18:56;7.90;;;3.90;;
61435;SDS011;47304;47.456;19.160;2023-04-03T00:21:23;9.20;;;4.20;;
61435;SDS011;47304;47.456;19.160;2023-04-03T00:23:49;9.60;;;4.20;;
61435;SDS011;47304;47.456;19.160;2023-04-03T00:26:16;7.80;;;3.90;;
61435;SDS011;47304;47.456;19.160;2023-04-03T00:28:42;8.30;;;4.10;;
61435;SDS011;47304;47.456;19.160;2023-04-03T00:31:09;9.10;;;4.10;;
61435;SDS011;47304;47.456;19.160;2023-04-03T00:33:36;8.70;;;4.00;;
61435;SDS011;47304;47.456;19.160;2023-04-03T00:36:06;7.80;;;3.60;;
61435;SDS011;47304;47.456;19.160;2023-04-03T00:38:34;8.40;;;4.20;;
61435;SDS011;47304;47.456;19.160;2023-04-03T00:41:01;9.60;;;4.10;;
61435;SDS011;47304;47.456;19.160;2023-04-03T00:43:27;7.90;;;3.90;;
61435;SDS011;47304;47.456;19.160;2023-04-03T00:45:55;7.90;;;4.00;;
61435;SDS011;47304;47.456;19.160;2023-04-03T00:51:06;8.90;;;4.50;;
61435;SDS011;47304;47.456;19.160;2023-04-03T00:53:56;8.90;;;4.00;;
61435;SDS011;47304;47.456;19.160;2023-04-03T00:56:25;9.80;;;4.40;;
61435;SDS011;47304;47.456;19.160;2023-04-03T00:59:15;9.20;;;4.40;;
61435;SDS011;47304;47.456;19.160;2023-04-03T01:01:42;9.00;;;3.90;;
61435;SDS011;47304;47.456;19.160;2023-04-03T01:07:15;8.60;;;4.00;;
61435;SDS011;47304;47.456;19.160;2023-04-03T01:09:46;8.40;;;4.10;;
61435;SDS011;47304;47.456;19.160;2023-04-03T01:14:44;7.60;;;3.50;;
61435;SDS011;47304;47.456;19.160;2023-04-03T01:18:12;9.60;;;4.10;;
61435;SDS011;47304;47.456;19.160;2023-04-03T01:25:43;9.40;;;4.30;;
61435;SDS011;47304;47.456;19.160;2023-04-03T01:28:14;8.90;;;3.80;;
61435;SDS011;47304;47.456;19.160;2023-04-03T01:33:37;8.60;;;4.10;;
61435;SDS011;47304;47.456;19.160;2023-04-03T01:36:04;8.30;;;4.00;;
61435;SDS011;47304;47.456;19.160;2023-04-03T01:38:31;9.20;;;3.70;;
61435;SDS011;47304;47.456;19.160;2023-04-03T01:40:58;8.90;;;3.90;;
61435;SDS011;47304;47.456;19.160;2023-04-03T01:43:24;8.00;;;3.00;;
61435;SDS011;47304;47.456;19.160;2023-04-03T01:45:51;9.20;;;4.10;;
61435;SDS011;47304;47.456;19.160;2023-04-03T01:48:17;8.60;;;3.80;;
61435;SDS011;47304;47.456;19.160;2023-04-03T01:50:44;9.40;;;4.30;;
61435;SDS011;47304;47.456;19.160;2023-04-03T01:53:10;9.40;;;4.20;;
61435;SDS011;47304;47.456;19.160;2023-04-03T01:55:37;7.60;;;3.50;;
61435;SDS011;47304;47.456;19.160;2023-04-03T01:58:03;8.80;;;3.90;;
61435;SDS011;47304;47.456;19.160;2023-04-03T02:00:30;8.70;;;3.80;;
61435;SDS011;47304;47.456;19.160;2023-04-03T02:02:57;8.40;;;3.80;;
61435;SDS011;47304;47.456;19.160;2023-04-03T02:05:23;7.50;;;3.50;;
61435;SDS011;47304;47.456;19.160;2023-04-03T02:07:50;7.90;;;3.70;;
61435;SDS011;47304;47.456;19.160;2023-04-03T02:10:16;7.60;;;3.40;;
61435;SDS011;47304;47.456;19.160;2023-04-03T02:12:43;8.20;;;3.80;;
61435;SDS011;47304;47.456;19.160;2023-04-03T02:15:09;8.40;;;3.90;;
61435;SDS011;47304;47.456;19.160;2023-04-03T02:17:36;8.30;;;3.60;;
61435;SDS011;47304;47.456;19.160;2023-04-03T02:20:03;7.40;;;3.40;;
61435;SDS011;47304;47.456;19.160;2023-04-03T02:22:30;9.40;;;4.10;;
61435;SDS011;47304;47.456;19.160;2023-04-03T02:24:57;7.50;;;3.50;;
61435;SDS011;47304;47.456;19.160;2023-04-03T02:27:23;7.80;;;3.60;;
61435;SDS011;47304;47.456;19.160;2023-04-03T02:29:50;7.50;;;3.40;;
61435;SDS011;47304;47.456;19.160;2023-04-03T02:32:17;7.10;;;3.10;;
61435;SDS011;47304;47.456;19.160;2023-04-03T02:34:43;8.30;;;3.70;;
61435;SDS011;47304;47.456;19.160;2023-04-03T02:37:10;8.60;;;3.20;;
61435;SDS011;47304;47.456;19.160;2023-04-03T02:39:36;8.30;;;3.60;;
61435;SDS011;47304;47.456;19.160;2023-04-03T02:42:03;8.10;;;3.70;;
61435;SDS011;47304;47.456;19.160;2023-04-03T02:44:30;7.30;;;3.50;;
61435;SDS011;47304;47.456;19.160;2023-04-03T02:46:56;7.50;;;3.30;;
61435;SDS011;47304;47.456;19.160;2023-04-03T02:49:23;7.70;;;3.30;;
61435;SDS011;47304;47.456;19.160;2023-04-03T02:51:49;7.00;;;3.30;;
61435;SDS011;47304;47.456;19.160;2023-04-03T02:54:16;8.70;;;3.60;;
61435;SDS011;47304;47.456;19.160;2023-04-03T02:56:42;7.20;;;3.10;;
61435;SDS011;47304;47.456;19.160;2023-04-03T02:59:09;7.50;;;3.50;;
61435;SDS011;47304;47.456;19.160;2023-04-03T03:01:35;7.90;;;3.40;;
61435;SDS011;47304;47.456;19.160;2023-04-03T03:04:02;8.50;;;3.40;;
61435;SDS011;47304;47.456;19.160;2023-04-03T03:06:29;7.20;;;3.30;;
61435;SDS011;47304;47.456;19.160;2023-04-03T03:08:55;7.00;;;2.80;;
61435;SDS011;47304;47.456;19.160;2023-04-03T03:11:22;7.20;;;3.10;;
61435;SDS011;47304;47.456;19.160;2023-04-03T03:13:48;6.80;;;3.10;;
61435;SDS011;47304;47.456;19.160;2023-04-03T03:16:15;7.10;;;3.00;;
61435;SDS011;47304;47.456;19.160;2023-04-03T03:18:41;8.00;;;3.20;;
61435;SDS011;47304;47.456;19.160;2023-04-03T03:21:08;6.60;;;2.80;;
61435;SDS011;47304;47.456;19.160;2023-04-03T03:23:36;7.90;;;3.10;;
61435;SDS011;47304;47.456;19.160;2023-04-03T03:26:03;7.00;;;3.10;;
61435;SDS011;47304;47.456;19.160;2023-04-03T03:28:32;7.80;;;3.40;;
61435;SDS011;47304;47.456;19.160;2023-04-03T03:30:59;8.10;;;3.40;;
61435;SDS011;47304;47.456;19.160;2023-04-03T03:33:25;6.80;;;3.10;;
61435;SDS011;47304;47.456;19.160;2023-04-03T03:35:53;5.90;;;2.40;;
61435;SDS011;47304;47.456;19.160;2023-04-03T03:38:20;7.30;;;3.20;;
61435;SDS011;47304;47.456;19.160;2023-04-03T03:40:47;7.20;;;3.20;;
61435;SDS011;47304;47.456;19.160;2023-04-03T03:43:15;7.60;;;3.20;;
61435;SDS011;47304;47.456;19.160;2023-04-03T03:45:42;5.70;;;2.60;;
61435;SDS011;47304;47.456;19.160;2023-04-03T03:48:09;6.10;;;2.70;;
61435;SDS011;47304;47.456;19.160;2023-04-03T03:50:35;7.80;;;3.30;;
61435;SDS011;47304;47.456;19.160;2023-04-03T03:53:02;8.90;;;3.10;;
61435;SDS011;47304;47.456;19.160;2023-04-03T03:55:28;6.40;;;3.20;;
61435;SDS011;47304;47.456;19.160;2023-04-03T03:57:55;7.10;;;3.40;;
61435;SDS011;47304;47.456;19.160;2023-04-03T04:00:21;6.70;;;3.00;;
61435;SDS011;47304;47.456;19.160;2023-04-03T04:02:48;7.00;;;2.90;;
61435;SDS011;47304;47.456;19.160;2023-04-03T04:05:14;7.10;;;3.00;;
61435;SDS011;47304;47.456;19.160;2023-04-03T04:07:41;8.60;;;3.10;;
61435;SDS011;47304;47.456;19.160;2023-04-03T04:10:08;8.60;;;3.20;;
61435;SDS011;47304;47.456;19.160;2023-04-03T04:12:35;7.20;;;3.40;;
61435;SDS011;47304;47.456;19.160;2023-04-03T04:15:01;6.90;;;3.10;;
61435;SDS011;47304;47.456;19.160;2023-04-03T04:17:29;7.50;;;3.20;;
61435;SDS011;47304;47.456;19.160;2023-04-03T04:19:55;6.80;;;3.30;;
61435;SDS011;47304;47.456;19.160;2023-04-03T04:22:22;8.50;;;3.40;;
61435;SDS011;47304;47.456;19.160;2023-04-03T04:24:48;7.40;;;3.30;;
61435;SDS011;47304;47.456;19.160;2023-04-03T04:27:15;8.30;;;3.40;;
61435;SDS011;47304;47.456;19.160;2023-04-03T04:29:41;7.20;;;3.10;;
61435;SDS011;47304;47.456;19.160;2023-04-03T04:32:08;8.50;;;3.60;;
61435;SDS011;47304;47.456;19.160;2023-04-03T04:34:34;8.70;;;3.40;;
61435;SDS011;47304;47.456;19.160;2023-04-03T04:37:00;7.70;;;3.30;;
61435;SDS011;47304;47.456;19.160;2023-04-03T04:39:27;8.40;;;3.60;;
61435;SDS011;47304;47.456;19.160;2023-04-03T04:41:54;7.60;;;2.90;;
61435;SDS011;47304;47.456;19.160;2023-04-03T04:44:20;8.40;;;3.80;;
61435;SDS011;47304;47.456;19.160;2023-04-03T04:46:47;7.30;;;3.30;;
61435;SDS011;47304;47.456;19.160;2023-04-03T04:49:15;7.20;;;3.10;;
61435;SDS011;47304;47.456;19.160;2023-04-03T04:51:43;7.00;;;3.10;;
61435;SDS011;47304;47.456;19.160;2023-04-03T04:54:17;8.00;;;3.40;;
61435;SDS011;47304;47.456;19.160;2023-04-03T04:56:44;7.80;;;3.60;;
61435;SDS011;47304;47.456;19.160;2023-04-03T04:59:11;7.80;;;3.40;;
61435;SDS011;47304;47.456;19.160;2023-04-03T05:01:37;8.40;;;3.90;;
61435;SDS011;47304;47.456;19.160;2023-04-03T05:04:04;7.00;;;3.50;;
61435;SDS011;47304;47.456;19.160;2023-04-03T05:06:31;8.50;;;3.50;;
61435;SDS011;47304;47.456;19.160;2023-04-03T05:08:57;9.00;;;3.70;;
61435;SDS011;47304;47.456;19.160;2023-04-03T05:11:24;8.60;;;4.30;;
61435;SDS011;47304;47.456;19.160;2023-04-03T05:13:51;9.30;;;4.10;;
61435;SDS011;47304;47.456;19.160;2023-04-03T05:16:18;9.40;;;4.40;;
61435;SDS011;47304;47.456;19.160;2023-04-03T05:18:44;7.80;;;3.50;;
61435;SDS011;47304;47.456;19.160;2023-04-03T05:21:11;9.20;;;4.10;;
61435;SDS011;47304;47.456;19.160;2023-04-03T05:23:37;8.00;;;3.60;;
61435;SDS011;47304;47.456;19.160;2023-04-03T05:26:04;7.90;;;3.20;;
61435;SDS011;47304;47.456;19.160;2023-04-03T05:28:31;8.40;;;3.70;;
61435;SDS011;47304;47.456;19.160;2023-04-03T05:30:58;7.30;;;3.20;;
61435;SDS011;47304;47.456;19.160;2023-04-03T05:33:25;8.20;;;3.60;;
61435;SDS011;47304;47.456;19.160;2023-04-03T05:35:52;9.50;;;4.00;;
61435;SDS011;47304;47.456;19.160;2023-04-03T05:38:19;8.50;;;3.90;;
61435;SDS011;47304;47.456;19.160;2023-04-03T05:40:46;8.20;;;3.60;;
61435;SDS011;47304;47.456;19.160;2023-04-03T05:43:12;7.60;;;2.90;;
61435;SDS011;47304;47.456;19.160;2023-04-03T05:45:39;8.20;;;3.80;;
61435;SDS011;47304;47.456;19.160;2023-04-03T05:48:06;9.90;;;4.00;;
61435;SDS011;47304;47.456;19.160;2023-04-03T05:50:32;7.80;;;3.70;;
61435;SDS011;47304;47.456;19.160;2023-04-03T05:52:59;9.00;;;3.50;;
61435;SDS011;47304;47.456;19.160;2023-04-03T05:55:28;8.20;;;3.50;;
61435;SDS011;47304;47.456;19.160;2023-04-03T05:57:54;8.00;;;3.30;;
61435;SDS011;47304;47.456;19.160;2023-04-03T06:00:21;6.30;;;2.80;;
61435;SDS011;47304;47.456;19.160;2023-04-03T06:02:47;7.70;;;3.30;;
61435;SDS011;47304;47.456;19.160;2023-04-03T06:05:14;8.80;;;4.10;;
61435;SDS011;47304;47.456;19.160;2023-04-03T06:07:41;10.40;;;4.40;;
61435;SDS011;47304;47.456;19.160;2023-04-03T06:10:07;13.10;;;4.70;;
61435;SDS011;47304;47.456;19.160;2023-04-03T06:12:34;8.20;;;4.10;;
61435;SDS011;47304;47.456;19.160;2023-04-03T06:15:01;8.70;;;3.80;;
61435;SDS011;47304;47.456;19.160;2023-04-03T06:17:27;8.50;;;3.80;;
61435;SDS011;47304;47.456;19.160;2023-04-03T06:19:54;9.40;;;4.10;;
61435;SDS011;47304;47.456;19.160;2023-04-03T06:22:20;11.60;;;4.40;;
61435;SDS011;47304;47.456;19.160;2023-04-03T06:24:47;7.90;;;3.60;;
61435;SDS011;47304;47.456;19.160;2023-04-03T06:27:13;8.20;;;3.50;;
61435;SDS011;47304;47.456;19.160;2023-04-03T06:29:40;10.30;;;4.10;;
61435;SDS011;47304;47.456;19.160;2023-04-03T06:32:07;8.20;;;3.60;;
61435;SDS011;47304;47.456;19.160;2023-04-03T06:34:33;8.50;;;3.80;;
61435;SDS011;47304;47.456;19.160;2023-04-03T06:37:00;8.10;;;4.10;;
61435;SDS011;47304;47.456;19.160;2023-04-03T06:39:26;8.80;;;3.70;;
61435;SDS011;47304;47.456;19.160;2023-04-03T06:41:53;9.30;;;4.00;;
61435;SDS011;47304;47.456;19.160;2023-04-03T06:44:23;9.00;;;4.00;;
61435;SDS011;47304;47.456;19.160;2023-04-03T06:46:49;9.00;;;3.90;;
61435;SDS011;47304;47.456;19.160;2023-04-03T06:49:16;8.40;;;3.40;;
61435;SDS011;47304;47.456;19.160;2023-04-03T06:51:43;8.00;;;3.70;;
61435;SDS011;47304;47.456;19.160;2023-04-03T06:54:09;8.20;;;3.80;;
61435;SDS011;47304;47.456;19.160;2023-04-03T06:56:36;8.50;;;4.10;;
61435;SDS011;47304;47.456;19.160;2023-04-03T06:59:03;8.50;;;4.30;;
61435;SDS011;47304;47.456;19.160;2023-04-03T07:01:30;8.40;;;3.80;;
61435;SDS011;47304;47.456;19.160;2023-04-03T07:03:57;10.90;;;4.20;;
61435;SDS011;47304;47.456;19.160;2023-04-03T07:06:26;7.50;;;3.40;;
61435;SDS011;47304;47.456;19.160;2023-04-03T07:08:53;8.90;;;4.00;;
61435;SDS011;47304;47.456;19.160;2023-04-03T07:11:20;8.30;;;3.60;;
61435;SDS011;47304;47.456;19.160;2023-04-03T07:13:47;7.60;;;3.60;;
61435;SDS011;47304;47.456;19.160;2023-04-03T07:16:13;7.10;;;3.40;;
61435;SDS011;47304;47.456;19.160;2023-04-03T07:18:40;7.70;;;3.30;;
61435;SDS011;47304;47.456;19.160;2023-04-03T07:21:07;7.20;;;2.90;;
61435;SDS011;47304;47.456;19.160;2023-04-03T07:23:33;7.90;;;3.20;;
61435;SDS011;47304;47.456;19.160;2023-04-03T07:26:00;7.40;;;3.10;;
61435;SDS011;47304;47.456;19.160;2023-04-03T07:28:27;6.80;;;3.00;;
61435;SDS011;47304;47.456;19.160;2023-04-03T07:31:00;8.20;;;3.10;;
61435;SDS011;47304;47.456;19.160;2023-04-03T07:33:32;7.70;;;2.90;;
61435;SDS011;47304;47.456;19.160;2023-04-03T07:35:58;6.60;;;2.70;;
61435;SDS011;47304;47.456;19.160;2023-04-03T07:38:25;6.40;;;2.80;;
61435;SDS011;47304;47.456;19.160;2023-04-03T07:40:52;6.30;;;2.50;;
61435;SDS011;47304;47.456;19.160;2023-04-03T07:43:20;8.50;;;3.50;;
61435;SDS011;47304;47.456;19.160;2023-04-03T07:45:48;7.80;;;3.00;;
61435;SDS011;47304;47.456;19.160;2023-04-03T07:48:16;7.80;;;3.00;;
61435;SDS011;47304;47.456;19.160;2023-04-03T07:50:50;5.50;;;2.40;;
61435;SDS011;47304;47.456;19.160;2023-04-03T07:53:17;6.50;;;2.50;;
61435;SDS011;47304;47.456;19.160;2023-04-03T07:55:47;5.80;;;2.40;;
61435;SDS011;47304;47.456;19.160;2023-04-03T07:58:16;6.00;;;2.60;;
61435;SDS011;47304;47.456;19.160;2023-04-03T08:00:44;6.70;;;3.10;;
61435;SDS011;47304;47.456;19.160;2023-04-03T08:03:14;6.50;;;2.60;;
61435;SDS011;47304;47.456;19.160;2023-04-03T08:05:44;6.20;;;2.40;;
61435;SDS011;47304;47.456;19.160;2023-04-03T08:08:16;6.10;;;2.60;;
61435;SDS011;47304;47.456;19.160;2023-04-03T08:10:50;6.40;;;2.60;;
61435;SDS011;47304;47.456;19.160;2023-04-03T08:13:18;6.40;;;2.50;;
61435;SDS011;47304;47.456;19.160;2023-04-03T08:15:48;7.20;;;2.70;;
61435;SDS011;47304;47.456;19.160;2023-04-03T08:18:15;5.40;;;2.40;;
61435;SDS011;47304;47.456;19.160;2023-04-03T08:20:42;5.90;;;2.60;;
61435;SDS011;47304;47.456;19.160;2023-04-03T08:23:09;5.90;;;2.70;;
61435;SDS011;47304;47.456;19.160;2023-04-03T08:25:39;5.90;;;2.50;;
61435;SDS011;47304;47.456;19.160;2023-04-03T08:28:07;6.10;;;2.50;;
61435;SDS011;47304;47.456;19.160;2023-04-03T08:30:34;6.00;;;2.50;;
61435;SDS011;47304;47.456;19.160;2023-04-03T08:33:01;5.70;;;2.40;;
61435;SDS011;47304;47.456;19.160;2023-04-03T08:35:29;5.00;;;2.10;;
61435;SDS011;47304;47.456;19.160;2023-04-03T08:37:56;6.10;;;2.50;;
61435;SDS011;47304;47.456;19.160;2023-04-03T08:40:23;6.40;;;2.60;;
61435;SDS011;47304;47.456;19.160;2023-04-03T08:45:21;5.80;;;2.40;;
61435;SDS011;47304;47.456;19.160;2023-04-03T08:48:00;6.10;;;2.60;;
61435;SDS011;47304;47.456;19.160;2023-04-03T08:50:37;8.90;;;3.60;;
61435;SDS011;47304;47.456;19.160;2023-04-03T08:53:06;6.80;;;2.80;;
61435;SDS011;47304;47.456;19.160;2023-04-03T08:55:42;6.00;;;2.90;;
61435;SDS011;47304;47.456;19.160;2023-04-03T08:58:12;6.00;;;2.80;;
61435;SDS011;47304;47.456;19.160;2023-04-03T09:00:51;7.30;;;3.00;;
61435;SDS011;47304;47.456;19.160;2023-04-03T09:03:24;6.30;;;2.60;;
61435;SDS011;47304;47.456;19.160;2023-04-03T09:11:14;6.00;;;2.40;;
61435;SDS011;47304;47.456;19.160;2023-04-03T09:13:54;6.40;;;3.00;;
61435;SDS011;47304;47.456;19.160;2023-04-03T09:18:54;7.40;;;3.40;;
61435;SDS011;47304;47.456;19.160;2023-04-03T09:21:33;6.20;;;2.80;;
61435;SDS011;47304;47.456;19.160;2023-04-03T09:24:04;6.50;;;2.70;;
61435;SDS011;47304;47.456;19.160;2023-04-03T09:26:38;6.70;;;3.10;;
61435;SDS011;47304;47.456;19.160;2023-04-03T09:29:12;7.30;;;2.90;;
61435;SDS011;47304;47.456;19.160;2023-04-03T09:31:43;6.00;;;2.70;;
61435;SDS011;47304;47.456;19.160;2023-04-03T09:34:25;5.70;;;2.60;;
61435;SDS011;47304;47.456;19.160;2023-04-03T09:36:54;6.80;;;2.80;;
61435;SDS011;47304;47.456;19.160;2023-04-03T09:39:24;7.00;;;2.60;;
61435;SDS011;47304;47.456;19.160;2023-04-03T09:44:25;6.20;;;2.50;;
61435;SDS011;47304;47.456;19.160;2023-04-03T09:46:54;5.90;;;2.40;;
61435;SDS011;47304;47.456;19.160;2023-04-03T09:49:21;7.00;;;2.70;;
61435;SDS011;47304;47.456;19.160;2023-04-03T09:51:48;5.40;;;2.50;;
61435;SDS011;47304;47.456;19.160;2023-04-03T09:57:13;6.10;;;2.50;;
61435;SDS011;47304;47.456;19.160;2023-04-03T09:59:45;8.70;;;2.50;;
61435;SDS011;47304;47.456;19.160;2023-04-03T10:05:05;7.50;;;3.50;;
61435;SDS011;47304;47.456;19.160;2023-04-03T10:10:40;6.40;;;2.60;;
61435;SDS011;47304;47.456;19.160;2023-04-03T10:13:17;5.20;;;2.40;;
61435;SDS011;47304;47.456;19.160;2023-04-03T10:15:57;6.70;;;2.60;;
61435;SDS011;47304;47.456;19.160;2023-04-03T10:21:08;6.20;;;2.70;;
61435;SDS011;47304;47.456;19.160;2023-04-03T10:23:59;7.30;;;3.30;;
61435;SDS011;47304;47.456;19.160;2023-04-03T10:32:26;5.30;;;2.40;;
61435;SDS011;47304;47.456;19.160;2023-04-03T10:38:03;6.70;;;2.90;;
61435;SDS011;47304;47.456;19.160;2023-04-03T10:41:02;6.80;;;2.70;;
61435;SDS011;47304;47.456;19.160;2023-04-03T10:46:22;5.00;;;2.00;;
61435;SDS011;47304;47.456;19.160;2023-04-03T10:49:08;3.80;;;1.70;;
61435;SDS011;47304;47.456;19.160;2023-04-03T10:56:47;4.30;;;2.10;;
61435;SDS011;47304;47.456;19.160;2023-04-03T10:59:48;4.70;;;1.80;;
61435;SDS011;47304;47.456;19.160;2023-04-03T11:02:28;2.70;;;1.60;;
61435;SDS011;47304;47.456;19.160;2023-04-03T11:05:07;6.20;;;2.40;;
61435;SDS011;47304;47.456;19.160;2023-04-03T11:07:49;4.10;;;1.80;;
61435;SDS011;47304;47.456;19.160;2023-04-03T11:10:33;4.30;;;2.00;;
61435;SDS011;47304;47.456;19.160;2023-04-03T11:15:40;4.50;;;1.90;;
61435;SDS011;47304;47.456;19.160;2023-04-03T11:18:12;4.50;;;1.70;;
61435;SDS011;47304;47.456;19.160;2023-04-03T11:20:53;5.00;;;2.00;;
61435;SDS011;47304;47.456;19.160;2023-04-03T11:23:40;5.10;;;1.80;;
61435;SDS011;47304;47.456;19.160;2023-04-03T11:26:22;4.70;;;1.80;;
61435;SDS011;47304;47.456;19.160;2023-04-03T11:28:56;5.40;;;2.30;;
61435;SDS011;47304;47.456;19.160;2023-04-03T11:31:33;5.10;;;1.90;;
61435;SDS011;47304;47.456;19.160;2023-04-03T11:37:30;4.20;;;1.80;;
61435;SDS011;47304;47.456;19.160;2023-04-03T11:40:05;4.10;;;1.70;;
61435;SDS011;47304;47.456;19.160;2023-04-03T11:42:49;5.10;;;2.30;;
61435;SDS011;47304;47.456;19.160;2023-04-03T11:50:50;5.50;;;2.10;;
61435;SDS011;47304;47.456;19.160;2023-04-03T11:59:36;4.20;;;1.80;;
61435;SDS011;47304;47.456;19.160;2023-04-03T12:01:53;3.60;;;1.50;;
61435;SDS011;47304;47.456;19.160;2023-04-03T12:04:22;3.50;;;1.70;;
61435;SDS011;47304;47.456;19.160;2023-04-03T12:06:58;3.20;;;1.60;;
61435;SDS011;47304;47.456;19.160;2023-04-03T12:12:21;4.80;;;2.00;;
61435;SDS011;47304;47.456;19.160;2023-04-03T12:15:22;4.60;;;1.80;;
61435;SDS011;47304;47.456;19.160;2023-04-03T12:17:49;5.30;;;2.20;;
61435;SDS011;47304;47.456;19.160;2023-04-03T12:23:31;5.30;;;2.20;;
61435;SDS011;47304;47.456;19.160;2023-04-03T12:26:19;4.00;;;2.00;;
61435;SDS011;47304;47.456;19.160;2023-04-03T12:29:10;5.40;;;2.10;;
61435;SDS011;47304;47.456;19.160;2023-04-03T12:45:58;6.60;;;2.10;;
61435;SDS011;47304;47.456;19.160;2023-04-03T12:48:29;5.50;;;2.10;;
61435;SDS011;47304;47.456;19.160;2023-04-03T12:50:58;5.10;;;2.20;;
61435;SDS011;47304;47.456;19.160;2023-04-03T12:53:26;5.50;;;2.20;;
61435;SDS011;47304;47.456;19.160;2023-04-03T13:01:40;3.90;;;1.90;;
61435;SDS011;47304;47.456;19.160;2023-04-03T13:04:09;5.60;;;1.80;;
61435;SDS011;47304;47.456;19.160;2023-04-03T13:06:39;5.30;;;2.00;;
61435;SDS011;47304;47.456;19.160;2023-04-03T13:09:17;3.70;;;1.60;;
61435;SDS011;47304;47.456;19.160;2023-04-03T13:11:45;5.00;;;1.90;;
61435;SDS011;47304;47.456;19.160;2023-04-03T13:14:15;3.00;;;1.60;;
61435;SDS011;47304;47.456;19.160;2023-04-03T13:19:26;4.10;;;1.80;;
61435;SDS011;47304;47.456;19.160;2023-04-03T13:24:31;5.50;;;1.70;;
61435;SDS011;47304;47.456;19.160;2023-04-03T13:27:01;4.20;;;2.00;;
61435;SDS011;47304;47.456;19.160;2023-04-03T13:29:30;3.10;;;1.60;;
61435;SDS011;47304;47.456;19.160;2023-04-03T13:31:59;5.40;;;2.00;;
61435;SDS011;47304;47.456;19.160;2023-04-03T13:34:38;3.60;;;1.70;;
61435;SDS011;47304;47.456;19.160;2023-04-03T13:37:26;5.00;;;1.80;;
61435;SDS011;47304;47.456;19.160;2023-04-03T13:40:10;5.00;;;1.80;;
61435;SDS011;47304;47.456;19.160;2023-04-03T13:42:39;4.50;;;2.00;;
61435;SDS011;47304;47.456;19.160;2023-04-03T13:45:20;5.50;;;1.80;;
61435;SDS011;47304;47.456;19.160;2023-04-03T13:47:52;5.60;;;1.80;;
61435;SDS011;47304;47.456;19.160;2023-04-03T13:50:21;4.50;;;1.90;;
61435;SDS011;47304;47.456;19.160;2023-04-03T13:52:53;5.90;;;2.10;;
61435;SDS011;47304;47.456;19.160;2023-04-03T13:57:59;9.60;;;3.90;;
61435;SDS011;47304;47.456;19.160;2023-04-03T14:03:34;4.90;;;2.00;;
61435;SDS011;47304;47.456;19.160;2023-04-03T14:06:12;5.50;;;1.90;;
61435;SDS011;47304;47.456;19.160;2023-04-03T14:08:41;4.20;;;1.80;;
61435;SDS011;47304;47.456;19.160;2023-04-03T14:11:16;4.30;;;1.90;;
61435;SDS011;47304;47.456;19.160;2023-04-03T14:13:45;5.10;;;1.90;;
61435;SDS011;47304;47.456;19.160;2023-04-03T14:16:20;11.90;;;2.60;;
61435;SDS011;47304;47.456;19.160;2023-04-03T14:18:49;5.40;;;2.10;;
61435;SDS011;47304;47.456;19.160;2023-04-03T14:21:16;8.00;;;2.80;;
61435;SDS011;47304;47.456;19.160;2023-04-03T14:23:45;4.40;;;1.90;;
61435;SDS011;47304;47.456;19.160;2023-04-03T14:26:13;5.80;;;2.70;;
61435;SDS011;47304;47.456;19.160;2023-04-03T14:28:41;4.20;;;1.90;;
61435;SDS011;47304;47.456;19.160;2023-04-03T14:31:11;4.90;;;1.90;;
61435;SDS011;47304;47.456;19.160;2023-04-03T14:33:39;3.70;;;1.70;;
61435;SDS011;47304;47.456;19.160;2023-04-03T14:36:13;9.70;;;2.10;;
61435;SDS011;47304;47.456;19.160;2023-04-03T14:38:42;7.80;;;2.40;;
61435;SDS011;47304;47.456;19.160;2023-04-03T14:41:11;4.00;;;1.80;;
61435;SDS011;47304;47.456;19.160;2023-04-03T14:43:42;4.80;;;2.00;;
61435;SDS011;47304;47.456;19.160;2023-04-03T14:46:15;3.00;;;1.70;;
61435;SDS011;47304;47.456;19.160;2023-04-03T14:48:43;9.60;;;1.80;;
61435;SDS011;47304;47.456;19.160;2023-04-03T14:51:11;6.60;;;3.40;;
61435;SDS011;47304;47.456;19.160;2023-04-03T14:53:39;4.10;;;1.70;;
61435;SDS011;47304;47.456;19.160;2023-04-03T14:56:11;4.80;;;2.00;;
61435;SDS011;47304;47.456;19.160;2023-04-03T14:58:40;5.90;;;2.80;;
61435;SDS011;47304;47.456;19.160;2023-04-03T15:01:08;3.70;;;1.70;;
61435;SDS011;47304;47.456;19.160;2023-04-03T15:03:36;3.10;;;1.50;;
61435;SDS011;47304;47.456;19.160;2023-04-03T15:06:03;3.00;;;1.60;;
61435;SDS011;47304;47.456;19.160;2023-04-03T15:08:30;3.80;;;1.70;;
61435;SDS011;47304;47.456;19.160;2023-04-03T15:10:56;3.50;;;1.60;;
61435;SDS011;47304;47.456;19.160;2023-04-03T15:13:24;4.90;;;1.60;;
61435;SDS011;47304;47.456;19.160;2023-04-03T15:15:51;3.40;;;1.60;;
61435;SDS011;47304;47.456;19.160;2023-04-03T15:18:20;3.40;;;1.60;;
61435;SDS011;47304;47.456;19.160;2023-04-03T15:20:49;4.00;;;1.70;;
61435;SDS011;47304;47.456;19.160;2023-04-03T15:23:16;4.30;;;1.60;;
61435;SDS011;47304;47.456;19.160;2023-04-03T15:25:43;4.00;;;1.80;;
61435;SDS011;47304;47.456;19.160;2023-04-03T15:28:15;5.00;;;2.10;;
61435;SDS011;47304;47.456;19.160;2023-04-03T15:30:46;3.60;;;1.60;;
61435;SDS011;47304;47.456;19.160;2023-04-03T15:33:12;3.40;;;1.60;;
61435;SDS011;47304;47.456;19.160;2023-04-03T15:35:40;5.40;;;1.80;;
61435;SDS011;47304;47.456;19.160;2023-04-03T15:38:07;6.80;;;2.80;;
61435;SDS011;47304;47.456;19.160;2023-04-03T15:40:34;7.00;;;2.80;;
61435;SDS011;47304;47.456;19.160;2023-04-03T15:43:00;3.90;;;2.10;;
61435;SDS011;47304;47.456;19.160;2023-04-03T15:45:30;4.80;;;1.90;;
61435;SDS011;47304;47.456;19.160;2023-04-03T15:47:58;7.00;;;2.70;;
61435;SDS011;47304;47.456;19.160;2023-04-03T15:50:25;6.80;;;3.00;;
61435;SDS011;47304;47.456;19.160;2023-04-03T15:52:52;7.80;;;3.40;;
61435;SDS011;47304;47.456;19.160;2023-04-03T15:55:20;13.80;;;7.80;;
61435;SDS011;47304;47.456;19.160;2023-04-03T15:57:48;8.30;;;3.40;;
61435;SDS011;47304;47.456;19.160;2023-04-03T16:00:15;12.50;;;4.70;;
61435;SDS011;47304;47.456;19.160;2023-04-03T16:02:42;8.50;;;3.80;;
61435;SDS011;47304;47.456;19.160;2023-04-03T16:05:11;7.40;;;2.80;;
61435;SDS011;47304;47.456;19.160;2023-04-03T16:07:39;4.80;;;1.80;;
61435;SDS011;47304;47.456;19.160;2023-04-03T16:10:06;4.40;;;2.00;;
61435;SDS011;47304;47.456;19.160;2023-04-03T16:12:34;12.40;;;6.70;;
61435;SDS011;47304;47.456;19.160;2023-04-03T16:15:01;6.40;;;2.60;;
61435;SDS011;47304;47.456;19.160;2023-04-03T16:17:29;5.50;;;2.10;;
61435;SDS011;47304;47.456;19.160;2023-04-03T16:19:57;7.30;;;2.60;;
61435;SDS011;47304;47.456;19.160;2023-04-03T16:22:24;6.90;;;2.10;;
61435;SDS011;47304;47.456;19.160;2023-04-03T16:24:52;4.70;;;2.10;;
61435;SDS011;47304;47.456;19.160;2023-04-03T16:27:19;5.40;;;1.90;;
61435;SDS011;47304;47.456;19.160;2023-04-03T16:29:46;6.70;;;2.40;;
61435;SDS011;47304;47.456;19.160;2023-04-03T16:32:12;3.80;;;2.00;;
61435;SDS011;47304;47.456;19.160;2023-04-03T16:34:40;6.70;;;2.20;;
61435;SDS011;47304;47.456;19.160;2023-04-03T16:37:08;5.90;;;2.20;;
61435;SDS011;47304;47.456;19.160;2023-04-03T16:39:34;4.90;;;2.10;;